Time;durP1;ratioP1;P1;durP2;ratioP2;P2;SDS_P1;SDS_P2;PMS_P1;PMS_P2;Temp;Humidity;BMP_temperature;BMP_pressure;BME280_temperature;BME280_humidity;BME280_pressure;Samples;Min_cycle;Max_cycle;Signal;HPM_P1;HPM_P2
2022/12/06 00:01:30;;;;;;;14.38;5.38;;;5.00;99.90;;;;;;5084791;28;20032;-65
2022/12/06 00:03:58;;;;;;;14.73;4.97;;;5.00;99.90;;;;;;5105465;28;20042;-65
2022/12/06 00:06:26;;;;;;;15.85;4.93;;;5.00;99.90;;;;;;5106807;28;20047;-68
2022/12/06 00:08:52;;;;;;;14.20;5.43;;;5.00;99.90;;;;;;5084869;28;20051;-65
2022/12/06 00:11:21;;;;;;;14.57;4.90;;;5.00;99.90;;;;;;5088563;28;20066;-67
2022/12/06 00:13:47;;;;;;;12.55;4.72;;;5.10;99.90;;;;;;5107264;28;20051;-65
2022/12/06 00:16:15;;;;;;;14.38;4.75;;;5.00;99.90;;;;;;5090055;28;20491;-66
2022/12/06 00:18:42;;;;;;;15.52;4.78;;;5.00;99.90;;;;;;5088249;28;20054;-66
2022/12/06 00:21:13;;;;;;;9.02;3.67;;;5.00;99.90;;;;;;5084708;28;20366;-65
2022/12/06 00:23:41;;;;;;;11.48;3.92;;;5.00;99.90;;;;;;5103984;28;20039;-65
2022/12/06 00:26:07;;;;;;;11.80;3.55;;;5.00;99.90;;;;;;5093987;28;20076;-64
2022/12/06 00:28:34;;;;;;;11.73;4.13;;;5.00;99.90;;;;;;5107235;28;20059;-65
2022/12/06 00:31:02;;;;;;;7.13;3.50;;;5.00;99.90;;;;;;5103036;28;20040;-66
2022/12/06 00:33:28;;;;;;;10.40;4.22;;;5.00;99.90;;;;;;5085170;28;20051;-64
2022/12/06 00:35:58;;;;;;;9.77;3.53;;;5.00;99.90;;;;;;5102321;28;20178;-65
2022/12/06 00:38:25;;;;;;;9.10;3.50;;;5.00;99.90;;;;;;5102025;28;20043;-65
2022/12/06 00:41:02;;;;;;;8.60;3.47;;;5.00;99.90;;;;;;5084896;28;20236;-65
2022/12/06 00:43:28;;;;;;;12.15;3.45;;;4.90;99.90;;;;;;5111051;28;20039;-65
2022/12/06 00:45:54;;;;;;;11.93;3.50;;;5.00;99.90;;;;;;5087822;28;20352;-65
2022/12/06 00:48:20;;;;;;;12.65;3.75;;;4.90;99.90;;;;;;5090102;28;20039;-66
2022/12/06 00:50:46;;;;;;;10.38;3.47;;;4.90;99.90;;;;;;5102729;28;20043;-64
2022/12/06 00:53:11;;;;;;;10.90;3.60;;;4.90;99.90;;;;;;5101494;28;20043;-67
2022/12/06 00:55:37;;;;;;;12.70;3.40;;;4.80;99.90;;;;;;5101257;28;20076;-65
2022/12/06 00:58:02;;;;;;;9.88;3.58;;;4.80;99.90;;;;;;5088706;28;20681;-66
2022/12/06 01:00:28;;;;;;;9.07;3.38;;;4.80;99.90;;;;;;5101156;28;20040;-65
2022/12/06 01:02:54;;;;;;;9.85;3.63;;;4.80;99.90;;;;;;5083585;28;20062;-66
2022/12/06 01:05:19;;;;;;;9.32;3.50;;;4.80;99.90;;;;;;5102975;28;20043;-67
2022/12/06 01:07:45;;;;;;;9.30;3.22;;;4.80;99.90;;;;;;5101777;28;20035;-65
2022/12/06 01:10:11;;;;;;;7.38;3.60;;;4.80;99.90;;;;;;5089360;28;20039;-64
2022/12/06 01:12:36;;;;;;;14.30;4.40;;;4.80;99.90;;;;;;5102787;28;20071;-67
2022/12/06 01:15:02;;;;;;;7.35;3.05;;;4.80;99.90;;;;;;5088733;28;20040;-65
2022/12/06 01:17:28;;;;;;;9.35;3.72;;;4.90;99.90;;;;;;5084967;28;20051;-65
2022/12/06 01:19:53;;;;;;;10.35;3.72;;;4.80;99.90;;;;;;5072942;28;20122;-65
2022/12/06 01:22:19;;;;;;;10.07;3.72;;;4.90;99.90;;;;;;5068129;28;20047;-65
2022/12/06 01:24:46;;;;;;;12.15;3.47;;;4.90;99.90;;;;;;5083105;28;20039;-65
2022/12/06 01:27:11;;;;;;;10.05;3.40;;;4.80;99.90;;;;;;5092006;28;20769;-66
2022/12/06 01:29:37;;;;;;;8.23;3.42;;;4.90;99.90;;;;;;5106615;28;20122;-65
2022/12/06 01:32:02;;;;;;;18.92;4.10;;;4.80;99.90;;;;;;5102345;28;20886;-67
2022/12/06 01:34:28;;;;;;;8.75;3.67;;;4.90;99.90;;;;;;5106941;28;20045;-65
2022/12/06 01:36:53;;;;;;;12.73;3.72;;;4.80;99.90;;;;;;5112917;28;20158;-66
2022/12/06 01:39:19;;;;;;;13.73;3.80;;;4.90;99.90;;;;;;5094467;28;20067;-66
2022/12/06 01:41:45;;;;;;;12.25;4.32;;;4.80;99.90;;;;;;5112369;28;20046;-65
2022/12/06 01:44:47;;;;;;;11.88;4.13;;;4.80;99.90;;;;;;5095742;28;20845;-65
2022/12/06 01:47:18;;;;;;;12.45;4.32;;;4.80;99.90;;;;;;5085251;28;20078;-66
2022/12/06 01:49:51;;;;;;;7.90;3.60;;;4.80;99.90;;;;;;5111327;28;20039;-64
2022/12/06 01:52:19;;;;;;;12.80;4.25;;;4.80;99.90;;;;;;5112371;28;20443;-65
2022/12/06 01:54:45;;;;;;;13.40;4.03;;;4.80;99.90;;;;;;5091894;28;20100;-65
2022/12/06 01:57:14;;;;;;;8.95;3.70;;;4.80;99.90;;;;;;5109162;28;20039;-66
2022/12/06 01:59:40;;;;;;;11.02;3.85;;;4.80;99.90;;;;;;5085364;28;20126;-67
2022/12/06 02:02:06;;;;;;;12.45;3.80;;;4.80;99.90;;;;;;5110544;28;20497;-64
2022/12/06 02:04:32;;;;;;;9.55;3.60;;;4.80;99.90;;;;;;5088882;28;20042;-65
2022/12/06 02:06:59;;;;;;;9.95;3.33;;;4.80;99.90;;;;;;5107506;28;20453;-62
2022/12/06 02:09:27;;;;;;;6.15;3.25;;;4.80;99.90;;;;;;5091564;28;20436;-62
2022/12/06 02:11:53;;;;;;;12.40;3.67;;;4.80;99.90;;;;;;5066201;28;20092;-62
2022/12/06 02:14:23;;;;;;;5.93;2.60;;;4.80;99.90;;;;;;5100737;28;20433;-64
2022/12/06 02:17:00;;;;;;;8.57;3.08;;;4.80;99.90;;;;;;5109734;28;20056;-63
2022/12/06 02:19:31;;;;;;;6.50;2.88;;;4.70;99.90;;;;;;5103484;28;20071;-62
2022/12/06 02:22:23;;;;;;;11.40;3.05;;;4.70;99.90;;;;;;5106575;28;20126;-62
2022/12/06 02:25:36;;;;;;;10.57;2.95;;;4.70;99.90;;;;;;5102341;28;20402;-63
2022/12/06 02:28:36;;;;;;;4.30;2.40;;;4.70;99.90;;;;;;5052040;28;20043;-62
2022/12/06 02:31:13;;;;;;;4.47;2.45;;;4.70;99.90;;;;;;5097276;28;20027;-62
2022/12/06 02:33:52;;;;;;;8.02;2.75;;;4.70;99.90;;;;;;5098804;28;20043;-64
2022/12/06 02:36:40;;;;;;;6.85;2.63;;;4.70;99.90;;;;;;5099648;28;20111;-62
2022/12/06 02:39:13;;;;;;;4.18;2.20;;;4.70;99.90;;;;;;5100408;28;20055;-62
2022/12/06 02:41:45;;;;;;;5.97;2.42;;;4.70;99.90;;;;;;5101721;28;20129;-62
2022/12/06 02:44:20;;;;;;;7.90;2.28;;;4.60;99.90;;;;;;5100848;28;20070;-62
2022/12/06 02:46:46;;;;;;;7.43;2.25;;;4.60;99.90;;;;;;5100643;28;20044;-63
2022/12/06 02:49:13;;;;;;;7.97;2.70;;;4.60;99.90;;;;;;5084760;28;20051;-63
2022/12/06 02:51:40;;;;;;;6.85;2.78;;;4.60;99.90;;;;;;5099475;28;20444;-62
2022/12/06 02:54:08;;;;;;;4.65;2.60;;;4.60;99.90;;;;;;5101343;28;20043;-63
2022/12/06 02:56:34;;;;;;;7.60;2.90;;;4.60;99.90;;;;;;5104140;28;20035;-62
2022/12/06 02:59:00;;;;;;;6.95;2.40;;;4.60;99.90;;;;;;5099807;28;20089;-62
2022/12/06 03:01:36;;;;;;;4.95;1.98;;;4.60;99.90;;;;;;5100528;28;20073;-62
2022/12/06 03:04:33;;;;;;;3.90;2.03;;;4.60;99.90;;;;;;5107681;28;20035;-62
2022/12/06 03:07:25;;;;;;;5.93;2.17;;;4.60;99.90;;;;;;5102804;28;20071;-64
2022/12/06 03:10:19;;;;;;;3.17;1.90;;;4.60;99.90;;;;;;5089990;28;20435;-62
2022/12/06 03:12:51;;;;;;;5.85;1.75;;;4.60;99.90;;;;;;5086030;28;20670;-64
2022/12/06 03:15:36;;;;;;;5.22;2.35;;;4.50;99.90;;;;;;5107580;28;20467;-62
2022/12/06 03:18:24;;;;;;;6.47;2.03;;;4.60;99.90;;;;;;5087532;28;20051;-62
2022/12/06 03:20:58;;;;;;;4.32;2.08;;;4.50;99.90;;;;;;5101624;28;20038;-64
2022/12/06 03:23:31;;;;;;;5.22;2.40;;;4.50;99.90;;;;;;5102238;28;20043;-62
2022/12/06 03:26:00;;;;;;;4.88;2.03;;;4.50;99.90;;;;;;5103777;28;20067;-64
2022/12/06 03:28:28;;;;;;;4.25;2.00;;;4.50;99.90;;;;;;5107446;28;20050;-63
2022/12/06 03:30:59;;;;;;;2.75;2.10;;;4.50;99.90;;;;;;5085663;28;20047;-62
2022/12/06 03:33:27;;;;;;;4.75;2.20;;;4.50;99.90;;;;;;5085639;28;20040;-62
2022/12/06 03:35:56;;;;;;;8.27;2.58;;;4.50;99.90;;;;;;5105561;28;20430;-63
2022/12/06 03:38:34;;;;;;;3.40;1.90;;;4.50;99.90;;;;;;5079526;28;20036;-62
2022/12/06 03:41:03;;;;;;;3.10;1.90;;;4.50;99.90;;;;;;5079534;28;20614;-63
2022/12/06 03:43:29;;;;;;;4.03;2.10;;;4.50;99.90;;;;;;5084999;28;20130;-62
2022/12/06 03:46:12;;;;;;;3.13;1.85;;;4.50;99.90;;;;;;5087941;28;20130;-62
2022/12/06 03:48:45;;;;;;;6.07;2.05;;;4.50;99.90;;;;;;5098540;28;20044;-62
2022/12/06 03:51:17;;;;;;;4.85;3.15;;;4.50;99.90;;;;;;5108087;28;20100;-62
2022/12/06 03:53:55;;;;;;;3.38;1.83;;;4.50;99.90;;;;;;5087105;28;20421;-64
2022/12/06 03:56:22;;;;;;;5.65;1.90;;;4.50;99.90;;;;;;5103207;28;20675;-63
2022/12/06 03:58:48;;;;;;;5.65;2.08;;;4.50;99.90;;;;;;5110852;28;20122;-63
2022/12/06 04:01:13;;;;;;;4.72;2.05;;;4.50;99.90;;;;;;5107587;28;20140;-62
2022/12/06 04:03:39;;;;;;;3.47;1.85;;;4.50;99.90;;;;;;5105980;28;20043;-62
2022/12/06 04:06:06;;;;;;;5.88;1.90;;;4.50;99.90;;;;;;5089570;28;20042;-63
2022/12/06 04:08:32;;;;;;;3.33;2.00;;;4.50;99.90;;;;;;5106553;28;20401;-64
2022/12/06 04:10:57;;;;;;;5.45;2.20;;;4.50;99.90;;;;;;5085974;28;20047;-65
2022/12/06 04:13:23;;;;;;;6.57;2.22;;;4.50;99.90;;;;;;5108578;28;20062;-62
2022/12/06 04:15:49;;;;;;;5.25;1.98;;;4.50;99.90;;;;;;5085929;28;20044;-62
2022/12/06 04:18:15;;;;;;;4.57;2.13;;;4.50;99.90;;;;;;5088857;28;20485;-62
2022/12/06 04:23:41;;;;;;;4.28;2.05;;;4.40;99.90;;;;;;5085954;28;20048;-64
2022/12/06 04:26:10;;;;;;;4.38;1.90;;;4.40;99.90;;;;;;5111122;28;20498;-62
2022/12/06 04:39:33;;;;;;;4.90;1.98;;;4.30;99.90;;;;;;5106194;28;20035;-62
2022/12/06 04:44:43;;;;;;;5.10;2.30;;;4.10;99.90;;;;;;5108985;28;20039;-62
2022/12/06 04:47:09;;;;;;;5.28;1.85;;;4.10;99.90;;;;;;5110979;28;20062;-63
2022/12/06 04:49:35;;;;;;;3.85;2.05;;;4.00;99.90;;;;;;5110201;28;20048;-62
2022/12/06 04:52:02;;;;;;;4.90;1.90;;;3.90;99.90;;;;;;5088962;28;20169;-62
2022/12/06 04:54:28;;;;;;;4.95;1.92;;;3.90;99.90;;;;;;5108174;28;20043;-63
2022/12/06 04:56:55;;;;;;;4.90;1.88;;;3.90;99.90;;;;;;5111249;28;20165;-62
2022/12/06 04:59:21;;;;;;;4.30;2.30;;;3.80;99.90;;;;;;5092816;28;20050;-62
2022/12/06 05:01:47;;;;;;;3.80;1.90;;;3.80;99.90;;;;;;5091646;28;20528;-64
2022/12/06 05:04:12;;;;;;;4.15;1.95;;;3.80;99.90;;;;;;5087050;28;20043;-63
2022/12/06 05:06:38;;;;;;;4.40;2.35;;;3.70;99.90;;;;;;5091491;28;20493;-63
2022/12/06 05:09:04;;;;;;;4.50;1.77;;;3.70;99.90;;;;;;5089314;28;20046;-63
2022/12/06 05:11:31;;;;;;;5.57;1.92;;;3.70;99.90;;;;;;5100395;28;20055;-63
2022/12/06 05:13:58;;;;;;;4.55;2.03;;;3.70;99.90;;;;;;5091173;28;20063;-62
2022/12/06 05:16:23;;;;;;;5.30;2.08;;;3.70;99.90;;;;;;5083329;28;20051;-62
2022/12/06 05:18:49;;;;;;;7.10;2.00;;;3.70;99.90;;;;;;5088245;28;20138;-62
2022/12/06 05:21:17;;;;;;;3.78;1.90;;;3.70;99.90;;;;;;5102000;28;20224;-62
2022/12/06 05:23:43;;;;;;;5.35;2.00;;;3.70;99.90;;;;;;5101003;28;20126;-64
2022/12/06 05:26:12;;;;;;;3.65;1.80;;;3.80;99.90;;;;;;5100047;28;20092;-64
2022/12/06 05:28:38;;;;;;;4.22;1.73;;;3.80;99.90;;;;;;5101483;28;20047;-61
2022/12/06 05:31:03;;;;;;;3.25;1.67;;;3.80;99.90;;;;;;5082754;28;20039;-62
2022/12/06 05:33:29;;;;;;;3.00;1.52;;;3.80;99.90;;;;;;5107925;28;20070;-63
2022/12/06 05:35:55;;;;;;;4.55;2.25;;;3.70;99.90;;;;;;5087675;28;20043;-62
2022/12/06 05:38:21;;;;;;;6.18;1.83;;;3.70;99.90;;;;;;5084432;28;20612;-62
2022/12/06 05:40:47;;;;;;;4.00;2.03;;;3.70;99.90;;;;;;5085346;28;20047;-62
2022/12/06 05:43:13;;;;;;;5.07;1.83;;;3.70;99.90;;;;;;5109534;28;20095;-62
2022/12/06 05:45:39;;;;;;;5.32;2.00;;;3.80;99.90;;;;;;5105347;28;20459;-64
2022/12/06 05:48:05;;;;;;;4.85;2.10;;;3.80;99.90;;;;;;5113789;28;20047;-62
2022/12/06 05:50:31;;;;;;;6.05;2.13;;;3.80;99.90;;;;;;5084365;28;20051;-62
2022/12/06 05:52:58;;;;;;;5.25;1.95;;;3.80;99.90;;;;;;5101034;28;20032;-62
2022/12/06 05:55:25;;;;;;;5.70;2.10;;;3.80;99.90;;;;;;5108830;28;20122;-62
2022/12/06 05:57:51;;;;;;;6.07;2.13;;;3.80;99.90;;;;;;5100975;28;20051;-64
2022/12/06 06:00:18;;;;;;;6.40;2.28;;;3.80;99.90;;;;;;5082519;28;20358;-62
2022/12/06 06:02:44;;;;;;;5.25;2.40;;;3.70;99.90;;;;;;5091796;28;20047;-63
2022/12/06 06:05:11;;;;;;;4.47;1.98;;;3.80;99.90;;;;;;5109167;28;20054;-62
2022/12/06 06:07:37;;;;;;;4.15;2.05;;;3.80;99.90;;;;;;5111910;28;20424;-63
2022/12/06 06:10:04;;;;;;;5.82;2.40;;;3.90;99.90;;;;;;5075840;28;20040;-63
2022/12/06 06:12:30;;;;;;;6.68;2.30;;;3.80;99.90;;;;;;5099433;28;20633;-62
2022/12/06 06:14:55;;;;;;;6.78;2.42;;;3.90;99.90;;;;;;5077081;28;20051;-62
2022/12/06 06:17:21;;;;;;;5.32;2.40;;;3.90;99.90;;;;;;5091976;28;20454;-63
2022/12/06 06:19:46;;;;;;;5.28;2.25;;;3.80;99.90;;;;;;5084377;28;20471;-63
2022/12/06 06:22:13;;;;;;;5.95;2.45;;;3.80;99.90;;;;;;5105453;28;20537;-62
2022/12/06 06:24:41;;;;;;;8.43;2.80;;;3.70;99.90;;;;;;5088551;28;20141;-62
2022/12/06 06:27:06;;;;;;;6.18;2.25;;;3.70;99.90;;;;;;5092523;28;20043;-63
2022/12/06 06:29:32;;;;;;;8.00;2.40;;;3.70;99.90;;;;;;5106245;28;20435;-63
2022/12/06 06:31:58;;;;;;;5.05;2.38;;;3.70;99.90;;;;;;5109158;28;20042;-63
2022/12/06 06:34:26;;;;;;;6.20;2.55;;;3.70;99.90;;;;;;5095062;28;20024;-63
2022/12/06 06:36:52;;;;;;;6.53;2.63;;;3.70;99.90;;;;;;5081011;28;20039;-62
2022/12/06 06:39:18;;;;;;;6.75;2.17;;;3.70;99.90;;;;;;5084195;28;20067;-64
2022/12/06 06:41:44;;;;;;;5.68;3.00;;;3.70;99.90;;;;;;5094534;28;20023;-62
2022/12/06 06:44:10;;;;;;;4.70;2.25;;;3.70;99.90;;;;;;5099570;28;20043;-63
2022/12/06 06:46:36;;;;;;;5.95;2.50;;;3.70;99.90;;;;;;5085399;28;20051;-63
2022/12/06 06:49:02;;;;;;;6.22;2.40;;;3.70;99.90;;;;;;5077158;28;20129;-62
2022/12/06 06:51:30;;;;;;;5.50;2.78;;;3.60;99.90;;;;;;5076109;28;20042;-62
2022/12/06 06:53:56;;;;;;;4.68;2.50;;;3.60;99.90;;;;;;5074485;28;20040;-63
2022/12/06 06:56:22;;;;;;;4.93;2.28;;;3.50;99.90;;;;;;5101676;28;20682;-63
2022/12/06 06:58:48;;;;;;;5.70;2.67;;;3.40;99.90;;;;;;5093941;28;20093;-63
2022/12/06 07:01:20;;;;;;;5.10;2.17;;;3.30;99.90;;;;;;5076394;28;20479;-63
2022/12/06 07:03:46;;;;;;;4.65;2.22;;;3.30;99.90;;;;;;5103755;28;20057;-64
2022/12/06 07:06:12;;;;;;;4.00;2.42;;;3.30;99.90;;;;;;5081157;28;20040;-62
2022/12/06 07:08:40;;;;;;;6.85;2.80;;;3.30;99.90;;;;;;5092871;28;20055;-62
2022/12/06 07:11:06;;;;;;;7.03;2.78;;;3.20;99.90;;;;;;5078962;28;20047;-62
2022/12/06 07:13:32;;;;;;;6.40;2.83;;;3.20;99.90;;;;;;5084096;28;20112;-62
2022/12/06 07:15:58;;;;;;;5.30;2.33;;;3.20;99.90;;;;;;5101780;28;20036;-63
2022/12/06 07:18:24;;;;;;;5.32;2.45;;;3.10;99.90;;;;;;5078016;28;20467;-62
2022/12/06 07:21:02;;;;;;;7.50;2.78;;;3.10;99.90;;;;;;5084483;28;20078;-63
2022/12/06 07:23:28;;;;;;;4.55;2.22;;;3.00;99.90;;;;;;5078344;28;20040;-62
2022/12/06 07:26:16;;;;;;;7.95;2.92;;;2.90;99.90;;;;;;5076775;28;20479;-63
2022/12/06 07:28:43;;;;;;;7.38;2.92;;;2.80;99.90;;;;;;5099613;28;20042;-66
2022/12/06 07:31:17;;;;;;;7.30;2.60;;;2.80;99.90;;;;;;5095016;28;20515;-63
2022/12/06 07:33:44;;;;;;;6.35;2.70;;;2.70;99.90;;;;;;5104339;28;20508;-63
2022/12/06 07:36:11;;;;;;;7.80;3.55;;;2.70;99.90;;;;;;5101333;28;20032;-63
2022/12/06 07:38:37;;;;;;;7.03;3.45;;;2.60;99.90;;;;;;5080666;28;20039;-63
2022/12/06 07:44:59;;;;;;;7.28;3.20;;;2.70;99.90;;;;;;5107750;28;20666;-64
2022/12/06 07:46:37;;;;;;;5.35;2.42;;;2.60;99.90;;;;;;5081114;28;20052;-64
2022/12/06 07:49:03;;;;;;;7.90;3.08;;;2.50;99.90;;;;;;5098561;28;20032;-64
2022/12/06 07:51:29;;;;;;;5.35;3.20;;;2.40;99.90;;;;;;5086108;28;20048;-62
2022/12/06 07:53:55;;;;;;;7.03;3.50;;;2.30;99.90;;;;;;5079580;28;20028;-62
2022/12/06 07:56:20;;;;;;;7.05;3.88;;;2.30;99.90;;;;;;5102167;28;20073;-64
2022/12/06 07:58:46;;;;;;;11.38;4.45;;;2.20;99.90;;;;;;5103016;28;20039;-64
2022/12/06 08:01:11;;;;;;;6.88;3.40;;;2.20;99.90;;;;;;5108228;28;20103;-62
2022/12/06 08:03:37;;;;;;;8.93;3.42;;;2.20;99.90;;;;;;5102694;28;20435;-64
2022/12/06 08:06:03;;;;;;;9.90;3.75;;;2.20;99.90;;;;;;5084438;28;20032;-63
2022/12/06 08:08:30;;;;;;;8.50;3.40;;;2.20;99.90;;;;;;5104529;28;20040;-63
2022/12/06 08:11:00;;;;;;;6.97;3.60;;;2.20;99.90;;;;;;5104934;28;20055;-64
2022/12/06 08:13:27;;;;;;;7.78;3.58;;;2.10;99.90;;;;;;5110469;28;20047;-64
2022/12/06 08:15:52;;;;;;;7.45;3.90;;;2.20;99.90;;;;;;5109047;28;20064;-64
2022/12/06 08:18:18;;;;;;;8.63;4.25;;;2.20;99.90;;;;;;5103603;28;20287;-65
2022/12/06 08:20:44;;;;;;;9.82;4.32;;;2.20;99.90;;;;;;5105476;28;20637;-63
2022/12/06 08:23:09;;;;;;;9.52;3.90;;;2.20;99.90;;;;;;5062651;28;20098;-63
2022/12/06 08:25:35;;;;;;;8.70;3.50;;;2.20;99.90;;;;;;5082853;28;20055;-62
2022/12/06 08:28:00;;;;;;;9.38;3.60;;;2.40;99.90;;;;;;5100634;28;20070;-62
2022/12/06 08:30:26;;;;;;;7.72;3.88;;;2.40;99.90;;;;;;5103807;28;20047;-62
2022/12/06 08:32:51;;;;;;;11.18;4.13;;;2.50;99.90;;;;;;5113764;28;20043;-62
2022/12/06 08:35:17;;;;;;;7.80;3.53;;;2.50;99.90;;;;;;5111512;28;20039;-62
2022/12/06 08:37:42;;;;;;;12.32;4.47;;;2.50;99.90;;;;;;5112621;28;20092;-62
2022/12/06 08:40:08;;;;;;;9.55;4.03;;;2.50;99.90;;;;;;5112598;28;20080;-62
2022/12/06 08:42:34;;;;;;;8.98;3.90;;;2.50;99.90;;;;;;5112714;28;20032;-62
2022/12/06 08:44:59;;;;;;;7.00;3.53;;;2.50;99.90;;;;;;5115404;28;20047;-64
2022/12/06 08:47:25;;;;;;;10.30;4.75;;;2.50;99.90;;;;;;5114715;28;20114;-62
2022/12/06 08:49:50;;;;;;;11.07;4.47;;;2.60;99.90;;;;;;5092055;28;20124;-63
2022/12/06 08:52:16;;;;;;;10.77;4.05;;;2.60;99.90;;;;;;5088553;28;20043;-63
2022/12/06 08:54:42;;;;;;;6.47;3.70;;;2.60;99.90;;;;;;5106864;28;21420;-63
2022/12/06 08:57:07;;;;;;;11.40;4.22;;;2.70;99.90;;;;;;5099875;28;20051;-63
2022/12/06 08:59:33;;;;;;;9.80;3.47;;;2.70;99.90;;;;;;5092170;28;20479;-63
2022/12/06 09:01:58;;;;;;;8.98;3.92;;;2.70;99.90;;;;;;5110536;28;20505;-62
2022/12/06 09:04:24;;;;;;;7.63;3.70;;;2.80;99.90;;;;;;5076735;28;20043;-62
2022/12/06 09:06:50;;;;;;;8.52;4.05;;;2.80;99.90;;;;;;5111877;28;20038;-63
2022/12/06 09:09:17;;;;;;;8.38;3.97;;;2.90;99.90;;;;;;5108630;28;20043;-63
2022/12/06 09:11:44;;;;;;;9.05;3.72;;;3.00;99.90;;;;;;5091637;28;20036;-63
2022/12/06 09:14:15;;;;;;;7.30;3.63;;;3.10;99.90;;;;;;5092765;28;20056;-62
2022/12/06 09:16:42;;;;;;;8.60;4.40;;;3.30;99.90;;;;;;5091052;28;20439;-64
2022/12/06 09:19:09;;;;;;;10.15;4.43;;;3.40;99.90;;;;;;5094273;28;20075;-63
2022/12/06 09:21:38;;;;;;;8.13;4.03;;;3.50;99.90;;;;;;5092983;28;20035;-64
2022/12/06 09:24:04;;;;;;;10.73;5.07;;;3.50;99.90;;;;;;5093449;28;20039;-64
2022/12/06 09:26:29;;;;;;;8.00;4.28;;;3.50;99.90;;;;;;5093031;28;20027;-64
2022/12/06 09:28:56;;;;;;;11.90;4.70;;;3.40;99.90;;;;;;5095205;28;20467;-65
2022/12/06 09:31:23;;;;;;;12.40;4.65;;;3.50;99.90;;;;;;5112762;28;20039;-64
2022/12/06 09:33:48;;;;;;;8.88;5.00;;;3.70;99.90;;;;;;5094220;28;20067;-63
2022/12/06 09:36:24;;;;;;;11.40;5.20;;;3.80;99.90;;;;;;5095719;28;20075;-65
2022/12/06 09:38:58;;;;;;;14.52;5.18;;;4.00;99.90;;;;;;5093708;28;20060;-64
2022/12/06 09:41:31;;;;;;;10.55;4.63;;;4.10;99.90;;;;;;5092175;28;20077;-63
2022/12/06 09:44:21;;;;;;;9.75;5.00;;;4.20;99.90;;;;;;5090595;28;20040;-64
2022/12/06 09:47:13;;;;;;;9.07;5.15;;;4.30;99.90;;;;;;5093621;28;20063;-64
2022/12/06 09:50:07;;;;;;;10.10;5.28;;;4.30;99.90;;;;;;5092210;28;20054;-64
2022/12/06 09:53:04;;;;;;;14.48;4.95;;;4.40;99.90;;;;;;5076579;28;20501;-65
2022/12/06 09:55:35;;;;;;;13.25;5.60;;;4.40;99.90;;;;;;5077718;28;20044;-64
2022/12/06 09:58:07;;;;;;;;;;;4.20;99.90;;;;;;5093163;28;20040;-63
2022/12/06 10:00:45;;;;;;;10.52;4.65;;;4.20;99.90;;;;;;5093722;28;19919;-64
2022/12/06 10:03:13;;;;;;;10.63;5.30;;;4.10;99.90;;;;;;5105780;28;20031;-64
2022/12/06 10:06:00;;;;;;;8.15;4.40;;;4.10;99.90;;;;;;5093702;28;20067;-63
2022/12/06 10:08:32;;;;;;;7.35;4.22;;;4.10;99.90;;;;;;5111059;28;20044;-64
2022/12/06 10:11:17;;;;;;;8.23;4.95;;;4.10;99.90;;;;;;5077087;28;20105;-65
2022/12/06 10:13:54;;;;;;;9.38;4.88;;;4.20;99.90;;;;;;5113565;28;20051;-65
2022/12/06 10:16:20;;;;;;;11.00;5.35;;;4.20;99.90;;;;;;5112922;28;20039;-64
2022/12/06 10:19:07;;;;;;;8.10;4.70;;;4.20;99.90;;;;;;5113280;28;20555;-65
2022/12/06 10:21:45;;;;;;;9.88;4.38;;;4.20;99.90;;;;;;5090398;28;20040;-64
2022/12/06 10:24:21;;;;;;;7.85;3.90;;;4.20;99.90;;;;;;5087528;28;20048;-65
2022/12/06 10:26:52;;;;;;;9.40;4.35;;;4.20;99.90;;;;;;5087174;28;20514;-64
2022/12/06 10:29:21;;;;;;;11.05;4.40;;;4.30;99.90;;;;;;5112525;28;20039;-64
2022/12/06 10:32:01;;;;;;;9.20;4.25;;;4.50;99.90;;;;;;5108640;28;20051;-65
2022/12/06 10:34:59;;;;;;;10.10;4.75;;;4.60;99.90;;;;;;5092803;28;20082;-64
2022/12/06 10:37:30;;;;;;;10.80;4.90;;;4.80;99.90;;;;;;5098999;28;20043;-64
2022/12/06 10:40:10;;;;;;;9.07;5.10;;;4.70;99.90;;;;;;5073784;28;20042;-65
2022/12/06 10:42:47;;;;;;;8.77;4.30;;;4.80;99.90;;;;;;5078093;28;20076;-64
2022/12/06 10:47:02;;;;;;;9.45;4.57;;;4.70;99.90;;;;;;5103194;28;20047;-64
2022/12/06 10:48:03;;;;;;;9.80;4.75;;;4.70;99.90;;;;;;5103381;28;20207;-65
2022/12/06 10:50:33;;;;;;;11.98;5.07;;;4.60;99.90;;;;;;5089944;28;20054;-63
2022/12/06 10:53:01;;;;;;;11.00;4.72;;;4.60;99.90;;;;;;5093882;28;20535;-64
2022/12/06 10:55:34;;;;;;;8.48;3.85;;;4.60;99.90;;;;;;5112969;28;20130;-64
2022/12/06 10:58:18;;;;;;;9.82;3.97;;;4.60;99.90;;;;;;5089204;28;20040;-63
2022/12/06 11:00:58;;;;;;;7.05;3.40;;;4.70;99.90;;;;;;5076099;28;20035;-63
2022/12/06 11:03:39;;;;;;;6.82;3.15;;;4.70;99.90;;;;;;5112924;28;20051;-64
2022/12/06 11:06:08;;;;;;;6.82;3.20;;;4.80;99.90;;;;;;5094463;28;20043;-63
2022/12/06 11:08:42;;;;;;;8.43;3.33;;;4.90;99.90;;;;;;5093454;28;20062;-64
2022/12/06 11:11:17;;;;;;;9.93;3.70;;;4.90;99.90;;;;;;5091825;28;20130;-65
2022/12/06 11:14:00;;;;;;;5.80;3.10;;;5.00;99.90;;;;;;5069161;28;20060;-64
2022/12/06 11:16:36;;;;;;;7.30;3.25;;;5.10;99.90;;;;;;5093044;28;20036;-64
2022/12/06 11:19:47;;;;;;;7.75;3.05;;;5.20;99.90;;;;;;5058382;28;20066;-65
2022/12/06 11:22:22;;;;;;;9.52;3.30;;;5.20;99.90;;;;;;5088179;28;20076;-64
2022/12/06 11:25:10;;;;;;;6.82;3.08;;;5.40;99.90;;;;;;5072936;28;20044;-64
2022/12/06 11:27:43;;;;;;;8.50;3.28;;;5.50;99.90;;;;;;5073191;28;20092;-66
2022/12/06 11:30:16;;;;;;;7.97;3.33;;;5.60;99.90;;;;;;5107141;28;20539;-64
2022/12/06 11:32:42;;;;;;;4.97;2.65;;;5.70;99.90;;;;;;5093543;28;20448;-66
2022/12/06 11:35:14;;;;;;;6.53;2.70;;;5.80;99.90;;;;;;5109936;28;20036;-64
2022/12/06 11:37:41;;;;;;;6.22;3.08;;;5.80;99.90;;;;;;5111893;28;20112;-65
2022/12/06 11:40:25;;;;;;;6.15;2.80;;;5.80;99.90;;;;;;5090535;28;20028;-64
2022/12/06 11:42:52;;;;;;;5.50;2.22;;;5.80;99.90;;;;;;5089964;28;20058;-64
2022/12/06 11:45:20;;;;;;;4.93;2.40;;;5.80;99.90;;;;;;5092316;28;20036;-64
2022/12/06 11:47:46;;;;;;;5.72;2.50;;;5.80;99.90;;;;;;5090609;28;20048;-65
2022/12/06 11:50:17;;;;;;;5.88;2.35;;;5.80;99.90;;;;;;5089751;28;20040;-64
2022/12/06 11:52:51;;;;;;;5.93;2.53;;;5.80;99.90;;;;;;5089272;28;20371;-65
2022/12/06 11:55:20;;;;;;;4.97;2.35;;;5.70;99.90;;;;;;5093668;28;20043;-64
2022/12/06 11:57:57;;;;;;;4.13;2.15;;;5.70;99.90;;;;;;5092764;28;20051;-64
2022/12/06 12:00:25;;;;;;;4.82;2.15;;;5.70;99.90;;;;;;5093603;28;20035;-64
2022/12/06 12:02:54;;;;;;;6.60;2.30;;;5.80;99.90;;;;;;5092989;28;20032;-65
2022/12/06 12:05:29;;;;;;;5.20;2.42;;;5.80;99.90;;;;;;5093996;28;20043;-64
2022/12/06 12:08:16;;;;;;;5.30;2.33;;;5.80;99.90;;;;;;5110926;28;20050;-64
2022/12/06 12:10:59;;;;;;;4.78;3.00;;;5.80;99.90;;;;;;5090142;28;20127;-65
2022/12/06 12:13:46;;;;;;;8.65;2.10;;;5.90;99.90;;;;;;5091626;28;20090;-64
2022/12/06 12:16:22;;;;;;;7.10;2.53;;;6.10;99.90;;;;;;5090762;28;20044;-64
2022/12/06 12:18:50;;;;;;;3.33;2.22;;;6.10;99.90;;;;;;5091705;28;20093;-64
2022/12/06 12:21:26;;;;;;;4.30;2.10;;;6.30;99.90;;;;;;5112012;28;20118;-63
2022/12/06 12:23:52;;;;;;;4.53;2.35;;;6.30;99.90;;;;;;5111038;28;20080;-63
2022/12/06 12:26:19;;;;;;;4.68;2.58;;;6.40;99.90;;;;;;5092657;28;20043;-64
2022/12/06 12:29:03;;;;;;;4.50;2.40;;;6.30;99.90;;;;;;5092827;28;20115;-64
2022/12/06 12:31:28;;;;;;;4.00;2.72;;;6.20;99.90;;;;;;5093572;28;20067;-63
2022/12/06 12:34:16;;;;;;;5.70;2.80;;;6.00;99.90;;;;;;5102200;28;20067;-64
2022/12/06 12:36:50;;;;;;;6.20;3.45;;;5.90;99.90;;;;;;5075173;28;20032;-63
2022/12/06 12:39:24;;;;;;;6.05;3.80;;;5.80;99.90;;;;;;5089029;28;20055;-64
2022/12/06 12:41:49;;;;;;;6.55;4.53;;;5.70;99.90;;;;;;5078189;28;20055;-63
2022/12/06 12:44:30;;;;;;;5.35;3.70;;;5.60;99.90;;;;;;5093595;28;20044;-63
2022/12/06 12:46:57;;;;;;;;;;;5.60;99.90;;;;;;5091597;28;20876;-64
2022/12/06 12:49:24;;;;;;;5.25;2.75;;;5.60;99.90;;;;;;5091090;28;19916;-65
2022/12/06 12:51:51;;;;;;;4.47;2.33;;;5.60;99.90;;;;;;5104467;28;20048;-65
2022/12/06 12:54:30;;;;;;;4.65;2.80;;;5.70;99.90;;;;;;5114658;28;20040;-65
2022/12/06 12:56:57;;;;;;;5.50;2.70;;;5.70;99.90;;;;;;5103199;28;20471;-64
2022/12/06 12:59:25;;;;;;;4.72;2.42;;;5.70;99.90;;;;;;5088254;28;20546;-64
2022/12/06 13:02:01;;;;;;;3.53;2.40;;;5.70;99.90;;;;;;5094109;28;20044;-66
2022/12/06 13:04:58;;;;;;;4.57;2.55;;;5.70;99.90;;;;;;5107140;28;20057;-64
2022/12/06 13:07:28;;;;;;;5.80;2.72;;;5.70;99.90;;;;;;5061422;28;20082;-65
2022/12/06 13:10:01;;;;;;;4.05;2.40;;;5.80;99.90;;;;;;5103194;28;20043;-64
2022/12/06 13:12:33;;;;;;;3.50;2.42;;;5.80;99.90;;;;;;5104937;28;20348;-65
2022/12/06 13:15:34;;;;;;;4.82;2.72;;;5.90;99.90;;;;;;5079596;28;20044;-64
2022/12/06 13:18:18;;;;;;;3.80;2.40;;;5.90;99.90;;;;;;5095159;28;20048;-65
2022/12/06 13:20:45;;;;;;;3.67;2.10;;;6.00;99.90;;;;;;5091505;28;20101;-63
2022/12/06 13:23:19;;;;;;;3.10;1.85;;;6.00;99.90;;;;;;5073384;28;20048;-64
2022/12/06 13:25:49;;;;;;;3.70;2.38;;;6.00;99.90;;;;;;5093341;28;20039;-65
2022/12/06 13:28:21;;;;;;;5.88;2.30;;;6.00;99.90;;;;;;5092227;28;20043;-64
2022/12/06 13:31:00;;;;;;;4.53;1.90;;;6.00;99.90;;;;;;5074888;28;20089;-65
2022/12/06 13:33:30;;;;;;;3.92;2.08;;;6.00;99.90;;;;;;5113701;28;20073;-64